createdAt,value
2022-08-25T00:01:14.562Z,18.46
2022-08-25T00:05:17.959Z,18.37
2022-08-25T00:09:24.426Z,18.30
2022-08-25T00:13:28.352Z,18.23
2022-08-25T00:17:32.597Z,18.25
2022-08-25T00:21:34.796Z,18.07
2022-08-25T00:25:36.878Z,18.08
2022-08-25T00:29:39.825Z,18.04
2022-08-25T00:33:43.941Z,18.10
2022-08-25T00:37:47.223Z,18.10
2022-08-25T00:41:52.635Z,18.05
2022-08-25T00:45:55.482Z,18.10
2022-08-25T00:50:01.725Z,18.09
2022-08-25T00:54:05.851Z,18.11
2022-08-25T00:58:14.241Z,18.15
2022-08-25T01:02:16.794Z,18.09
2022-08-25T01:06:19.863Z,17.96
2022-08-25T01:10:23.753Z,17.29
2022-08-25T01:14:28.215Z,17.36
2022-08-25T01:18:47.507Z,17.39
2022-08-25T01:22:55.316Z,17.45
2022-08-25T01:26:58.252Z,17.54
2022-08-25T01:31:00.722Z,17.60
2022-08-25T01:35:03.474Z,17.58
2022-08-25T01:39:06.168Z,17.67
2022-08-25T01:43:11.736Z,17.69
2022-08-25T01:47:15.155Z,17.66
2022-08-25T01:51:20.962Z,17.63
2022-08-25T01:55:23.350Z,17.49
2022-08-25T01:59:27.134Z,17.49
2022-08-25T02:03:30.104Z,17.45
2022-08-25T02:07:35.931Z,17.31
2022-08-25T02:11:46.081Z,17.03
2022-08-25T02:16:01.734Z,17.21
2022-08-25T02:20:07.297Z,17.29
2022-08-25T02:24:10.691Z,17.38
2022-08-25T02:28:13.999Z,17.45
2022-08-25T02:32:16.477Z,17.48
2022-08-25T02:36:24.811Z,17.45
2022-08-25T02:40:27.776Z,17.32
2022-08-25T02:44:31.853Z,17.19
2022-08-25T02:48:34.690Z,17.25
2022-08-25T02:52:41.743Z,17.25
2022-08-25T02:56:47.150Z,17.26
2022-08-25T03:00:50.307Z,17.32
2022-08-25T03:04:57.798Z,17.38
2022-08-25T03:09:04.043Z,17.06
2022-08-25T03:13:13.276Z,16.89
2022-08-25T03:17:16.967Z,17.04
2022-08-25T03:21:19.685Z,17.00
2022-08-25T03:25:42.095Z,16.91
2022-08-25T03:29:44.407Z,16.94
2022-08-25T03:33:46.766Z,17.03
2022-08-25T03:37:48.918Z,17.08
2022-08-25T03:41:52.316Z,16.93
2022-08-25T03:45:54.498Z,16.66
2022-08-25T03:49:57.039Z,16.61
2022-08-25T03:54:03.297Z,16.74
2022-08-25T03:58:05.963Z,16.66
2022-08-25T04:02:15.937Z,16.61
2022-08-25T04:06:19.529Z,16.58
2022-08-25T04:10:22.001Z,16.75
2022-08-25T04:14:24.693Z,16.74
2022-08-25T04:18:26.822Z,16.80
2022-08-25T04:22:31.335Z,16.91
2022-08-25T04:26:41.008Z,16.95
2022-08-25T04:30:43.907Z,16.86
2022-08-25T04:34:46.112Z,16.74
2022-08-25T04:38:49.850Z,16.80
2022-08-25T04:42:52.042Z,16.78
2022-08-25T04:46:54.321Z,16.85
2022-08-25T04:50:56.398Z,16.95
2022-08-25T04:55:00.230Z,17.00
2022-08-25T04:59:05.488Z,17.05
2022-08-25T05:03:08.626Z,17.09
2022-08-25T05:07:10.860Z,17.06
2022-08-25T05:11:15.839Z,16.74
2022-08-25T05:19:48.004Z,16.93
2022-08-25T05:23:51.065Z,17.12
2022-08-25T05:27:53.390Z,17.36
2022-08-25T05:31:57.054Z,17.58
2022-08-25T05:35:59.616Z,17.62
2022-08-25T05:40:02.299Z,17.73
2022-08-25T05:44:05.996Z,17.98
2022-08-25T05:48:10.852Z,18.24
2022-08-25T05:52:17.737Z,18.43
2022-08-25T05:56:22.827Z,18.66
2022-08-25T06:00:28.801Z,18.95
2022-08-25T06:04:41.209Z,19.24
2022-08-25T06:08:48.958Z,19.55
2022-08-25T06:12:58.930Z,19.93
2022-08-25T06:17:12.435Z,19.89
2022-08-25T06:21:22.747Z,20.06
2022-08-25T06:25:34.494Z,20.32
2022-08-25T06:29:41.345Z,20.59
2022-08-25T06:33:52.752Z,20.91
2022-08-25T06:38:02.315Z,21.16
2022-08-25T06:42:05.521Z,21.48
2022-08-25T06:46:14.189Z,21.55
2022-08-25T06:50:18.707Z,21.70
2022-08-25T06:54:21.428Z,21.94
2022-08-25T06:58:24.276Z,22.23
2022-08-25T07:02:35.272Z,22.51
2022-08-25T07:06:38.318Z,22.84
2022-08-25T07:10:42.752Z,23.27
2022-08-25T07:15:10.228Z,23.47
2022-08-25T07:19:14.718Z,23.59
2022-08-25T07:23:17.125Z,23.70
2022-08-25T07:27:20.210Z,23.86
2022-08-25T07:31:23.134Z,23.92
2022-08-25T07:39:56.031Z,24.22
2022-08-25T07:43:59.832Z,24.29
2022-08-25T07:48:09.520Z,24.44
2022-08-25T07:52:12.434Z,24.60
2022-08-25T07:56:16.916Z,24.69
2022-08-25T08:04:37.591Z,24.96
2022-08-25T08:08:44.940Z,25.20
2022-08-25T08:12:47.931Z,25.31
2022-08-25T08:16:54.116Z,25.37
2022-08-25T08:20:56.605Z,25.62
2022-08-25T08:24:58.760Z,25.67
2022-08-25T08:29:01.902Z,25.75
2022-08-25T08:33:10.113Z,25.87
2022-08-25T08:37:14.670Z,25.97
2022-08-25T08:42:12.488Z,26.10
2022-08-25T08:46:15.146Z,26.20
2022-08-25T08:50:32.318Z,26.42
2022-08-25T08:54:39.055Z,26.48
2022-08-25T08:58:50.139Z,26.56
2022-08-25T09:03:07.818Z,26.78
2022-08-25T09:07:48.547Z,26.78
2022-08-25T09:12:12.470Z,26.93
2022-08-25T09:16:48.575Z,27.02
2022-08-25T09:21:16.834Z,27.14
2022-08-25T09:25:29.379Z,27.30
2022-08-25T09:29:47.782Z,27.33
2022-08-25T09:33:55.570Z,27.55
2022-08-25T09:38:09.651Z,27.54
2022-08-25T09:42:12.008Z,27.51
2022-08-25T09:46:27.187Z,27.67
2022-08-25T09:50:34.814Z,27.78
2022-08-25T09:54:44.384Z,27.81
2022-08-25T09:58:51.893Z,27.81
2022-08-25T10:03:09.567Z,27.86
2022-08-25T10:07:40.357Z,27.95
2022-08-25T10:11:48.428Z,27.95
2022-08-25T10:16:17.678Z,28.06
2022-08-25T10:20:27.258Z,28.23
2022-08-25T10:24:38.020Z,28.25
2022-08-25T10:29:04.885Z,28.37
2022-08-25T10:33:13.144Z,28.49
2022-08-25T10:37:51.707Z,28.53
2022-08-25T10:42:25.869Z,28.62
2022-08-25T10:46:57.338Z,28.64
2022-08-25T10:51:41.337Z,28.59
2022-08-25T10:55:55.945Z,28.61
2022-08-25T11:00:09.389Z,28.77
2022-08-25T11:04:11.783Z,28.90
2022-08-25T11:08:20.135Z,28.92
2022-08-25T11:12:31.253Z,29.01
2022-08-25T11:16:41.928Z,29.06
2022-08-25T11:21:13.006Z,29.12
2022-08-25T11:25:43.017Z,29.37
2022-08-25T11:30:09.564Z,29.65
2022-08-25T11:34:19.558Z,29.84
2022-08-25T11:38:26.087Z,30.10
2022-08-25T11:42:36.013Z,30.23
2022-08-25T11:47:14.723Z,30.29
2022-08-25T11:51:41.076Z,30.39
2022-08-25T11:55:50.784Z,30.51
2022-08-25T11:59:57.145Z,30.74
2022-08-25T12:04:44.458Z,30.51
2022-08-25T12:09:01.164Z,30.42
2022-08-25T12:13:42.819Z,30.39
2022-08-25T12:17:45.176Z,30.57
2022-08-25T12:21:47.440Z,30.52
2022-08-25T12:25:53.455Z,30.65
2022-08-25T12:30:01.128Z,30.41
2022-08-25T12:34:33.020Z,30.33
2022-08-25T12:38:42.500Z,30.61
2022-08-25T12:42:46.819Z,30.52
2022-08-25T12:47:07.237Z,30.53
2022-08-25T12:51:20.381Z,30.70
2022-08-25T12:55:26.424Z,30.71
2022-08-25T12:59:37.839Z,30.69
2022-08-25T13:03:52.702Z,30.83
2022-08-25T13:08:20.924Z,31.22
2022-08-25T13:12:51.204Z,31.54
2022-08-25T13:16:58.007Z,31.60
2022-08-25T13:21:18.490Z,31.28
2022-08-25T13:25:32.023Z,30.70
2022-08-25T13:29:49.672Z,30.57
2022-08-25T13:34:04.056Z,30.71
2022-08-25T13:38:19.477Z,30.62
2022-08-25T13:42:24.483Z,30.75
2022-08-25T13:46:31.991Z,31.28
2022-08-25T13:50:40.987Z,31.53
2022-08-25T13:54:48.005Z,31.70
2022-08-25T13:58:50.546Z,31.90
2022-08-25T14:02:55.482Z,31.27
2022-08-25T14:07:10.305Z,31.36
2022-08-25T14:11:47.794Z,31.44
2022-08-25T14:15:50.021Z,31.53
2022-08-25T14:19:52.635Z,31.55
2022-08-25T14:23:56.301Z,31.68
2022-08-25T14:28:06.923Z,31.55
2022-08-25T14:32:10.932Z,31.52
2022-08-25T14:36:13.578Z,31.73
2022-08-25T14:40:23.002Z,31.89
2022-08-25T14:44:27.410Z,32.01
2022-08-25T14:48:42.400Z,32.28
2022-08-25T14:52:45.808Z,32.34
2022-08-25T14:56:50.320Z,32.19
2022-08-25T15:00:54.548Z,32.44
2022-08-25T15:05:01.335Z,32.25
2022-08-25T15:09:13.876Z,31.69
2022-08-25T15:13:17.507Z,30.94
2022-08-25T15:17:20.016Z,30.47
2022-08-25T15:21:23.757Z,30.43
2022-08-25T15:25:29.253Z,30.85
2022-08-25T15:29:35.086Z,31.17
2022-08-25T15:33:37.275Z,31.37
2022-08-25T15:37:39.949Z,31.80
2022-08-25T15:41:42.840Z,32.19
2022-08-25T15:45:46.440Z,32.11
2022-08-25T15:49:48.725Z,32.92
2022-08-25T15:53:51.064Z,34.21
2022-08-25T15:57:55.265Z,34.00
2022-08-25T16:01:59.461Z,35.39
2022-08-25T16:06:04.127Z,35.73
2022-08-25T16:10:11.860Z,37.03
2022-08-25T16:14:16.306Z,37.65
2022-08-25T16:18:19.075Z,37.60
2022-08-25T16:22:21.063Z,37.08
2022-08-25T16:26:24.094Z,36.47
2022-08-25T16:30:28.093Z,36.70
2022-08-25T16:34:32.528Z,36.92
2022-08-25T16:38:40.797Z,36.82
2022-08-25T16:42:43.661Z,36.82
2022-08-25T16:46:46.093Z,37.00
2022-08-25T16:50:50.032Z,36.78
2022-08-25T16:55:11.317Z,36.30
2022-08-25T16:59:15.437Z,36.44
2022-08-25T17:03:20.308Z,36.21
2022-08-25T17:07:24.108Z,35.61
2022-08-25T17:11:32.025Z,35.57
2022-08-25T17:15:35.428Z,35.18
2022-08-25T17:19:45.783Z,35.11
2022-08-25T17:23:49.012Z,34.81
2022-08-25T17:27:53.615Z,33.96
2022-08-25T17:31:55.842Z,33.55
2022-08-25T17:35:59.179Z,32.93
2022-08-25T17:40:06.268Z,32.36
2022-08-25T17:44:09.142Z,31.81
2022-08-25T17:48:13.379Z,30.56
2022-08-25T17:52:17.375Z,30.07
2022-08-25T17:56:21.704Z,29.50
2022-08-25T18:00:28.388Z,29.05
2022-08-25T18:04:32.636Z,28.37
2022-08-25T18:08:35.124Z,27.88
2022-08-25T18:12:39.130Z,27.44
2022-08-25T18:16:42.274Z,27.09
2022-08-25T18:20:46.199Z,26.93
2022-08-25T18:24:49.070Z,26.78
2022-08-25T18:28:53.014Z,26.52
2022-08-25T18:32:55.297Z,26.34
2022-08-25T18:37:18.282Z,26.24
2022-08-25T18:41:21.374Z,26.09
2022-08-25T18:45:30.258Z,25.95
2022-08-25T18:49:32.572Z,25.82
2022-08-25T18:53:37.558Z,25.72
2022-08-25T18:57:52.369Z,25.65
2022-08-25T19:01:55.135Z,25.59
2022-08-25T19:05:58.112Z,25.58
2022-08-25T19:10:00.426Z,25.54
2022-08-25T19:14:03.322Z,25.43
2022-08-25T19:18:14.928Z,25.40
2022-08-25T19:22:40.277Z,25.38
2022-08-25T19:26:42.998Z,25.35
2022-08-25T19:30:50.647Z,25.30
2022-08-25T19:34:54.931Z,25.21
2022-08-25T19:39:00.609Z,25.10
2022-08-25T19:43:03.111Z,25.05
2022-08-25T19:47:09.007Z,24.90
2022-08-25T19:51:16.138Z,24.62
2022-08-25T19:55:25.430Z,24.53
2022-08-25T19:59:36.583Z,24.50
2022-08-25T20:03:44.929Z,24.37
2022-08-25T20:07:49.578Z,24.27
2022-08-25T20:11:53.770Z,24.05
2022-08-25T20:15:57.824Z,23.91
2022-08-25T20:20:04.849Z,23.84
2022-08-25T20:24:26.840Z,23.67
2022-08-25T20:28:29.525Z,23.23
2022-08-25T20:32:32.662Z,23.12
2022-08-25T20:36:37.688Z,22.96
2022-08-25T20:40:42.463Z,22.93
2022-08-25T20:44:47.080Z,22.78
2022-08-25T20:48:49.274Z,22.85
2022-08-25T20:52:55.245Z,22.84
2022-08-25T20:56:58.655Z,22.83
2022-08-25T21:01:01.183Z,22.55
2022-08-25T21:05:04.840Z,22.52
2022-08-25T21:09:15.698Z,22.34
2022-08-25T21:13:18.099Z,22.25
2022-08-25T21:17:20.515Z,22.12
2022-08-25T21:21:23.182Z,22.39
2022-08-25T21:25:27.426Z,22.23
2022-08-25T21:29:30.282Z,22.11
2022-08-25T21:33:33.143Z,21.94
2022-08-25T21:38:21.950Z,21.97
2022-08-25T21:42:25.098Z,21.94
2022-08-25T21:46:30.414Z,21.94
2022-08-25T21:50:33.994Z,21.98
2022-08-25T21:54:39.683Z,21.98
2022-08-25T21:58:45.085Z,21.87
2022-08-25T22:02:51.806Z,21.77
2022-08-25T22:06:54.710Z,21.60
2022-08-25T22:11:01.000Z,21.31
2022-08-25T22:15:06.090Z,21.16
2022-08-25T22:19:10.077Z,21.35
2022-08-25T22:23:20.310Z,21.36
2022-08-25T22:27:23.505Z,21.40
2022-08-25T22:31:27.529Z,21.02
2022-08-25T22:35:34.271Z,21.13
2022-08-25T22:39:38.413Z,20.68
2022-08-25T22:43:47.073Z,20.88
2022-08-25T22:47:53.116Z,20.77
2022-08-25T22:51:56.197Z,20.76
2022-08-25T22:55:59.170Z,20.58
2022-08-25T23:00:19.404Z,20.26
2022-08-25T23:04:25.228Z,20.28
2022-08-25T23:08:39.232Z,20.43
2022-08-25T23:12:45.663Z,20.48
2022-08-25T23:16:51.925Z,20.51
2022-08-25T23:21:17.696Z,20.52
2022-08-25T23:25:40.719Z,20.52
2022-08-25T23:29:46.387Z,20.46
2022-08-25T23:33:51.720Z,20.16
2022-08-25T23:37:53.993Z,20.07
2022-08-25T23:41:56.838Z,20.05
2022-08-25T23:45:59.674Z,19.97
2022-08-25T23:50:04.753Z,19.76
2022-08-25T23:54:10.686Z,19.68
2022-08-25T23:58:13.026Z,19.57
